首页
METAR-TAF:

METAR-TAF

机场 :

米蘇拉, 蒙大拿州, 美国

纬度: 46-55-15N, 经度: 114-05-33W, 海拔: 975米

当前天气观测

该预报发布于39分钟前的02:53 UTC
风速9节,风向北转西北
温度 16°C
湿度 55%
气压 1015 hPa
能見度: 16.1公里
少量云层高于6000英尺

METAR: KMSO 010253Z 33009KT 10SM FEW060 16/07 A2998 RMK AO2 SLP143 T01610067 53012

时间: 21:32 (03:32 UTC)

预报

该预报发布于34分钟前的02:58 UTC
预报有效从01日的 03点(UTC)到 01日的 24点(UTC)
风速10节,风向北转西北
能見度: 10公里
散云层高于6000英尺

TAF: KMSO 010258Z 0103/0124 33010KT P6SM SCT060

超过4000个机场的气象观测和天气预报(METAR&TAF报告)。

可查询的气象台以黄色和红色小点在地图上表示。

将鼠标移到小点上方,可查看气象台名称。

然后点击查看天气观测和预报。

如需切换地图:点击带黑十字的绿色按钮放大地图;点击带横线的绿色按钮缩小地图;或者点击绿色箭头查看邻近地区的地图。


METAR-TAF: